createdAt,value
2023-07-18T00:01:37.265Z,10.80
2023-07-18T00:04:05.161Z,11.20
2023-07-18T00:06:33.446Z,10.20
2023-07-18T00:09:01.085Z,10.30
2023-07-18T00:11:28.734Z,11.20
2023-07-18T00:13:56.365Z,10.60
2023-07-18T00:16:24.109Z,11.10
2023-07-18T00:18:51.732Z,10.50
2023-07-18T00:21:19.607Z,10.90
2023-07-18T00:23:48.451Z,10.60
2023-07-18T00:26:17.254Z,10.00
2023-07-18T00:28:44.783Z,10.00
2023-07-18T00:31:12.399Z,9.60
2023-07-18T00:33:39.995Z,9.40
2023-07-18T00:36:07.912Z,9.10
2023-07-18T00:38:35.925Z,9.30
2023-07-18T00:41:05.870Z,9.10
2023-07-18T00:43:34.071Z,9.00
2023-07-18T00:46:01.871Z,8.30
2023-07-18T00:50:57.373Z,8.70
2023-07-18T00:55:54.333Z,8.50
2023-07-18T00:58:22.249Z,9.10
2023-07-18T01:00:49.926Z,9.20
2023-07-18T01:03:18.963Z,8.70
2023-07-18T01:05:46.681Z,8.80
2023-07-18T01:08:14.338Z,8.70
2023-07-18T01:10:42.053Z,9.10
2023-07-18T01:13:09.691Z,8.50
2023-07-18T01:15:37.507Z,9.10
2023-07-18T01:18:10.606Z,9.80
2023-07-18T01:20:39.453Z,9.80
2023-07-18T01:25:35.905Z,9.90
2023-07-18T01:30:32.084Z,9.50
2023-07-18T01:35:27.923Z,9.30
2023-07-18T01:37:56.374Z,9.10
2023-07-18T01:40:24.330Z,9.20
2023-07-18T01:42:53.393Z,9.70
2023-07-18T01:45:24.366Z,9.70
2023-07-18T01:47:52.646Z,10.40
2023-07-18T01:50:20.860Z,10.10
2023-07-18T01:52:49.163Z,9.90
2023-07-18T01:55:17.120Z,9.60
2023-07-18T02:00:14.110Z,8.80
2023-07-18T02:02:41.842Z,8.80
2023-07-18T02:05:10.129Z,8.80
2023-07-18T02:07:37.808Z,9.10
2023-07-18T02:12:33.478Z,8.80
2023-07-18T02:15:01.312Z,8.90
2023-07-18T02:17:28.950Z,9.10
2023-07-18T02:19:56.957Z,8.60
2023-07-18T02:22:24.483Z,9.10
2023-07-18T02:24:52.132Z,8.70
2023-07-18T02:29:50.574Z,8.80
2023-07-18T02:32:18.321Z,8.90
2023-07-18T02:37:13.458Z,9.10
2023-07-18T02:39:45.805Z,8.70
2023-07-18T02:42:13.664Z,8.10
2023-07-18T02:47:09.584Z,9.00
2023-07-18T02:49:37.387Z,9.10
2023-07-18T02:52:05.274Z,9.60
2023-07-18T02:54:32.845Z,8.80
2023-07-18T02:57:01.428Z,9.20
2023-07-18T02:59:29.280Z,9.70
2023-07-18T03:01:58.536Z,10.00
2023-07-18T03:04:28.059Z,10.10
2023-07-18T03:06:55.632Z,10.40
2023-07-18T03:09:23.432Z,9.80
2023-07-18T03:11:54.217Z,10.10
2023-07-18T03:14:23.779Z,9.20
2023-07-18T03:16:52.894Z,9.20
2023-07-18T03:19:20.638Z,9.90
2023-07-18T03:26:43.633Z,9.00
2023-07-18T03:29:11.244Z,9.60
2023-07-18T03:31:40.920Z,9.10
2023-07-18T03:34:08.824Z,8.70
2023-07-18T03:36:38.403Z,8.30
2023-07-18T03:39:07.272Z,8.50
2023-07-18T03:41:34.891Z,8.20
2023-07-18T03:44:02.545Z,7.60
2023-07-18T03:46:30.114Z,7.90
2023-07-18T03:48:58.243Z,7.90
2023-07-18T03:51:26.505Z,7.90
2023-07-18T03:53:56.642Z,7.50
2023-07-18T03:56:24.867Z,6.90
2023-07-18T04:01:21.009Z,6.80
2023-07-18T04:03:50.333Z,6.50
2023-07-18T04:06:17.929Z,6.80
2023-07-18T04:08:45.469Z,6.50
2023-07-18T04:11:13.066Z,6.10
2023-07-18T04:13:40.807Z,6.40
2023-07-18T04:18:36.398Z,6.10
2023-07-18T04:23:31.943Z,5.90
2023-07-18T04:26:00.736Z,5.80
2023-07-18T04:28:29.271Z,6.00
2023-07-18T04:30:56.810Z,6.10
2023-07-18T04:33:24.581Z,5.70
2023-07-18T04:40:47.619Z,5.00
2023-07-18T04:43:15.508Z,4.60
2023-07-18T04:45:45.844Z,4.10
2023-07-18T04:48:17.582Z,4.30
2023-07-18T04:50:46.114Z,4.60
2023-07-18T04:53:14.138Z,4.10
2023-07-18T04:55:41.779Z,4.30
2023-07-18T04:58:09.668Z,4.20
2023-07-18T05:00:37.931Z,3.80
2023-07-18T05:03:06.931Z,3.60
2023-07-18T05:05:34.674Z,3.60
2023-07-18T05:10:30.838Z,3.80
2023-07-18T05:15:26.241Z,3.50
2023-07-18T05:17:54.182Z,3.60
2023-07-18T05:20:21.954Z,4.10
2023-07-18T05:25:17.931Z,4.10
2023-07-18T05:27:45.619Z,3.30
2023-07-18T05:32:46.402Z,3.70
2023-07-18T05:35:16.802Z,3.50
2023-07-18T05:37:44.809Z,3.10
2023-07-18T05:40:12.937Z,3.50
2023-07-18T05:42:41.254Z,3.50
2023-07-18T05:45:09.628Z,3.70
2023-07-18T05:47:38.640Z,3.40
2023-07-18T05:50:07.924Z,3.10
2023-07-18T05:52:35.546Z,3.30
2023-07-18T05:55:05.506Z,3.10
2023-07-18T05:57:33.187Z,3.20
2023-07-18T06:00:01.085Z,4.10
2023-07-18T06:02:29.415Z,3.80
2023-07-18T06:04:57.393Z,3.70
2023-07-18T06:07:24.914Z,4.00
2023-07-18T06:09:53.634Z,3.50
2023-07-18T06:12:21.374Z,3.80
2023-07-18T06:14:49.753Z,3.50
2023-07-18T06:17:18.008Z,3.20
2023-07-18T06:19:47.703Z,3.50
2023-07-18T06:22:15.295Z,3.20
2023-07-18T06:24:43.296Z,3.50
2023-07-18T06:27:11.210Z,3.70
2023-07-18T06:29:39.026Z,3.30
2023-07-18T06:32:07.237Z,2.90
2023-07-18T06:34:42.324Z,3.60
2023-07-18T06:37:11.688Z,3.20
2023-07-18T06:39:39.988Z,3.70
2023-07-18T06:42:10.054Z,3.40
2023-07-18T06:44:39.046Z,3.00
2023-07-18T06:47:06.866Z,2.90
2023-07-18T06:49:34.554Z,3.30
2023-07-18T06:52:02.481Z,3.40
2023-07-18T06:54:30.287Z,3.40
2023-07-18T07:01:53.375Z,3.10
2023-07-18T07:04:21.071Z,2.80
2023-07-18T07:06:48.963Z,3.20
2023-07-18T07:09:17.132Z,3.20
2023-07-18T07:11:44.851Z,3.20
2023-07-18T07:14:13.195Z,3.30
2023-07-18T07:16:41.257Z,3.40
2023-07-18T07:19:09.199Z,2.80
2023-07-18T07:21:37.124Z,3.00
2023-07-18T07:24:05.290Z,3.30
2023-07-18T07:26:33.282Z,3.10
2023-07-18T07:29:01.058Z,3.40
2023-07-18T07:31:28.709Z,3.20
2023-07-18T07:33:56.461Z,3.00
2023-07-18T07:36:24.223Z,3.80
2023-07-18T07:38:52.010Z,3.50
2023-07-18T07:43:47.884Z,3.50
2023-07-18T07:48:42.964Z,3.80
2023-07-18T07:53:44.827Z,3.60
2023-07-18T07:56:12.429Z,3.40
2023-07-18T07:58:40.130Z,3.20
2023-07-18T08:03:36.115Z,3.30
2023-07-18T08:06:04.136Z,4.20
2023-07-18T08:08:32.705Z,3.70
2023-07-18T08:11:00.646Z,3.50
2023-07-18T08:15:57.250Z,3.70
2023-07-18T08:18:25.223Z,3.50
2023-07-18T08:20:53.224Z,3.30
2023-07-18T08:23:21.139Z,3.40
2023-07-18T08:25:48.934Z,3.00
2023-07-18T08:28:16.546Z,3.40
2023-07-18T08:30:44.784Z,3.20
2023-07-18T08:33:12.645Z,2.80
2023-07-18T08:40:35.698Z,3.20
2023-07-18T08:43:04.119Z,3.50
2023-07-18T08:45:33.078Z,3.40
2023-07-18T08:48:00.648Z,3.30
2023-07-18T08:50:28.264Z,3.70
2023-07-18T08:55:24.309Z,3.40
2023-07-18T08:57:51.848Z,4.00
2023-07-18T09:00:22.249Z,3.80
2023-07-18T09:02:50.505Z,3.60
2023-07-18T09:07:57.465Z,4.00
2023-07-18T09:10:25.152Z,4.40
2023-07-18T09:12:53.735Z,3.90
2023-07-18T09:15:21.835Z,4.10
2023-07-18T09:17:56.987Z,3.80
2023-07-18T09:20:27.403Z,3.60
2023-07-18T09:22:58.061Z,3.80
2023-07-18T09:25:26.597Z,4.30
2023-07-18T09:27:55.025Z,4.30
2023-07-18T09:30:43.554Z,5.50
2023-07-18T09:33:11.637Z,5.10
2023-07-18T09:35:42.461Z,5.10
2023-07-18T09:38:10.441Z,4.80
2023-07-18T09:40:39.419Z,5.60
2023-07-18T09:43:07.505Z,5.50
2023-07-18T09:45:35.225Z,5.70
2023-07-18T09:48:04.604Z,6.00
2023-07-18T09:50:32.761Z,6.00
2023-07-18T09:53:00.383Z,5.00
2023-07-18T09:55:28.787Z,5.60
2023-07-18T09:57:57.069Z,5.10
2023-07-18T10:00:26.001Z,5.50
2023-07-18T10:02:54.353Z,5.10
2023-07-18T10:05:22.371Z,5.10
2023-07-18T10:10:18.354Z,4.80
2023-07-18T10:12:55.477Z,5.10
2023-07-18T10:15:23.725Z,4.20
2023-07-18T10:17:51.469Z,4.20
2023-07-18T10:20:21.364Z,4.20
2023-07-18T10:22:51.658Z,4.30
2023-07-18T10:25:19.458Z,3.90
2023-07-18T10:27:47.916Z,3.90
2023-07-18T10:30:19.709Z,3.80
2023-07-18T10:32:54.184Z,3.30
2023-07-18T10:35:29.317Z,3.30
2023-07-18T10:38:07.846Z,3.40
2023-07-18T10:40:45.251Z,3.50
2023-07-18T10:43:18.465Z,3.70
2023-07-18T10:45:46.419Z,3.60
2023-07-18T10:48:15.767Z,3.70
2023-07-18T10:50:45.143Z,3.60
2023-07-18T10:53:17.525Z,3.20
2023-07-18T10:55:47.289Z,3.30
2023-07-18T10:58:20.565Z,3.40
2023-07-18T11:00:49.730Z,3.10
2023-07-18T11:03:22.500Z,3.50
2023-07-18T11:05:51.364Z,3.30
2023-07-18T11:08:30.024Z,3.20
2023-07-18T11:11:01.999Z,3.40
2023-07-18T11:13:34.211Z,3.30
2023-07-18T11:16:12.421Z,3.10
2023-07-18T11:18:42.531Z,3.70
2023-07-18T11:21:10.280Z,3.40
2023-07-18T11:23:38.977Z,3.20
2023-07-18T11:26:14.826Z,3.30
2023-07-18T11:28:44.136Z,3.50
2023-07-18T11:34:00.996Z,4.10
2023-07-18T11:36:32.943Z,3.80
2023-07-18T11:39:02.775Z,3.70
2023-07-18T11:41:41.109Z,3.60
2023-07-18T11:44:09.953Z,4.20
2023-07-18T11:46:45.175Z,3.80
2023-07-18T11:49:13.762Z,3.40
2023-07-18T11:51:41.711Z,4.00
2023-07-18T11:54:09.482Z,3.60
2023-07-18T11:59:05.016Z,4.10
2023-07-18T12:04:14.064Z,3.50
2023-07-18T12:06:42.628Z,3.70
2023-07-18T12:09:10.337Z,3.90
2023-07-18T12:14:07.766Z,4.90
2023-07-18T12:16:37.849Z,4.20
2023-07-18T12:19:05.728Z,3.70
2023-07-18T12:21:33.415Z,3.60
2023-07-18T12:24:01.366Z,3.50
2023-07-18T12:26:29.223Z,3.80
2023-07-18T12:28:56.865Z,3.40
2023-07-18T12:31:24.941Z,3.70
2023-07-18T12:33:53.466Z,4.30
2023-07-18T12:36:21.992Z,3.40
2023-07-18T12:38:50.011Z,4.10
2023-07-18T12:41:18.398Z,3.50
2023-07-18T12:43:46.448Z,3.90
2023-07-18T12:46:14.030Z,3.80
2023-07-18T12:51:12.337Z,3.50
2023-07-18T12:53:40.183Z,3.40
2023-07-18T12:58:35.471Z,3.40
2023-07-18T13:03:33.878Z,3.40
2023-07-18T13:06:02.232Z,3.70
2023-07-18T13:08:30.090Z,3.50
2023-07-18T13:10:57.836Z,3.60
2023-07-18T13:13:26.270Z,3.60
2023-07-18T13:15:53.984Z,3.50
2023-07-18T13:20:49.277Z,3.80
2023-07-18T13:25:45.126Z,4.10
2023-07-18T13:28:12.868Z,3.90
2023-07-18T13:30:40.742Z,3.80
2023-07-18T13:33:10.668Z,4.00
2023-07-18T13:35:38.398Z,4.00
2023-07-18T13:38:07.267Z,4.50
2023-07-18T13:40:36.562Z,4.50
2023-07-18T13:43:04.617Z,4.60
2023-07-18T13:45:32.365Z,4.80
2023-07-18T13:52:58.211Z,4.00
2023-07-18T13:57:53.500Z,4.30
2023-07-18T14:02:51.049Z,4.40
2023-07-18T14:05:18.794Z,4.30
2023-07-18T14:10:14.299Z,4.10
2023-07-18T14:12:42.202Z,4.20
2023-07-18T14:15:10.983Z,3.90
2023-07-18T14:17:39.058Z,3.70
2023-07-18T14:20:07.385Z,3.50
2023-07-18T14:22:35.567Z,3.70
2023-07-18T14:25:03.664Z,4.20
2023-07-18T14:27:31.715Z,3.80
2023-07-18T14:29:59.465Z,4.00
2023-07-18T14:34:54.841Z,4.20
2023-07-18T14:37:22.524Z,3.80
2023-07-18T14:40:03.652Z,4.10
2023-07-18T14:42:32.317Z,3.60
2023-07-18T14:45:00.138Z,3.60
2023-07-18T14:47:28.696Z,4.50
2023-07-18T14:49:57.765Z,4.00
2023-07-18T14:52:25.586Z,3.80
2023-07-18T14:54:57.743Z,3.90
2023-07-18T14:57:26.933Z,3.90
2023-07-18T14:59:54.923Z,3.80
2023-07-18T15:02:22.825Z,3.40
2023-07-18T15:04:50.954Z,3.40
2023-07-18T15:07:19.443Z,3.50
2023-07-18T15:09:49.374Z,3.40
2023-07-18T15:12:18.538Z,3.80
2023-07-18T15:14:47.039Z,3.20
2023-07-18T15:17:14.652Z,3.10
2023-07-18T15:19:42.286Z,2.90
2023-07-18T15:22:09.894Z,2.70
2023-07-18T15:24:37.917Z,2.70
2023-07-18T15:27:06.675Z,2.90
2023-07-18T15:29:34.941Z,3.20
2023-07-18T15:32:02.728Z,2.80
2023-07-18T15:34:30.533Z,2.60
2023-07-18T15:36:58.168Z,2.60
2023-07-18T15:39:25.980Z,2.30
2023-07-18T15:41:53.921Z,2.20
2023-07-18T15:44:21.716Z,2.10
2023-07-18T15:46:50.326Z,1.80
2023-07-18T15:49:18.270Z,1.90
2023-07-18T15:51:45.937Z,2.00
2023-07-18T15:54:13.626Z,1.90
2023-07-18T15:56:43.006Z,2.00
2023-07-18T15:59:10.669Z,2.10
2023-07-18T16:01:38.398Z,1.90
2023-07-18T16:04:07.820Z,1.80
2023-07-18T16:06:35.546Z,1.90
2023-07-18T16:09:04.124Z,1.90
2023-07-18T16:11:32.062Z,1.90
2023-07-18T16:13:59.816Z,2.00
2023-07-18T16:16:27.701Z,2.10
2023-07-18T16:18:57.316Z,2.00
2023-07-18T16:21:25.666Z,1.80
2023-07-18T16:23:53.589Z,1.80
2023-07-18T16:26:22.148Z,1.90
2023-07-18T16:28:50.858Z,1.90
2023-07-18T16:31:22.704Z,1.80
2023-07-18T16:33:50.969Z,2.80
2023-07-18T16:36:19.261Z,1.90
2023-07-18T16:38:49.080Z,1.80
2023-07-18T16:41:17.042Z,2.00
2023-07-18T16:43:44.842Z,2.10
2023-07-18T16:46:12.569Z,1.80
2023-07-18T16:48:40.208Z,1.60
2023-07-18T16:51:07.849Z,2.00
2023-07-18T16:56:03.519Z,2.10
2023-07-18T16:58:31.225Z,1.80
2023-07-18T17:03:26.478Z,2.10
2023-07-18T17:05:54.427Z,2.00
2023-07-18T17:08:22.421Z,2.20
2023-07-18T17:10:50.345Z,1.80
2023-07-18T17:13:20.198Z,2.00
2023-07-18T17:15:47.960Z,2.00
2023-07-18T17:20:43.431Z,2.40
2023-07-18T17:23:12.191Z,2.40
2023-07-18T17:25:40.414Z,2.40
2023-07-18T17:28:08.065Z,2.40
2023-07-18T17:30:36.111Z,2.80
2023-07-18T17:33:03.910Z,2.30
2023-07-18T17:37:59.121Z,2.00
2023-07-18T17:45:23.525Z,2.00
2023-07-18T17:47:51.507Z,1.80
2023-07-18T17:52:47.015Z,1.90
2023-07-18T17:55:14.868Z,1.90
2023-07-18T18:02:37.913Z,1.80
2023-07-18T18:05:35.517Z,2.10
2023-07-18T18:08:04.479Z,1.90
2023-07-18T18:10:32.246Z,2.20
2023-07-18T18:13:00.287Z,2.80
2023-07-18T18:15:28.572Z,3.10
2023-07-18T18:17:56.458Z,3.60
2023-07-18T18:22:52.840Z,3.50
2023-07-18T18:25:20.482Z,3.20
2023-07-18T18:27:48.509Z,3.20
2023-07-18T18:30:16.197Z,3.00
2023-07-18T18:32:43.943Z,3.10
2023-07-18T18:37:41.095Z,3.10
2023-07-18T18:40:09.250Z,3.30
2023-07-18T18:42:36.847Z,3.20
2023-07-18T18:47:33.027Z,3.50
2023-07-18T18:50:01.290Z,3.10
2023-07-18T18:52:28.989Z,2.60
2023-07-18T18:55:08.702Z,2.80
2023-07-18T18:57:41.314Z,2.80
2023-07-18T19:00:10.290Z,2.50
2023-07-18T19:02:38.050Z,2.30
2023-07-18T19:05:06.955Z,1.90
2023-07-18T19:07:34.584Z,2.00
2023-07-18T19:10:03.593Z,2.10
2023-07-18T19:12:31.265Z,2.30
2023-07-18T19:14:58.959Z,2.00
2023-07-18T19:17:26.675Z,2.00
2023-07-18T19:22:22.211Z,2.00
2023-07-18T19:24:49.792Z,1.70
2023-07-18T19:29:45.854Z,1.80
2023-07-18T19:32:13.646Z,2.10
2023-07-18T19:37:12.398Z,1.70
2023-07-18T19:39:40.167Z,2.50
2023-07-18T19:42:08.324Z,2.10
2023-07-18T19:44:36.261Z,2.00
2023-07-18T19:47:04.582Z,2.00
2023-07-18T19:49:32.367Z,2.00
2023-07-18T19:51:59.897Z,2.10
2023-07-18T19:54:27.713Z,2.30
2023-07-18T19:56:55.505Z,2.60
2023-07-18T20:01:51.873Z,2.30
2023-07-18T20:04:19.657Z,2.10
2023-07-18T20:10:43.297Z,2.30
2023-07-18T20:13:11.137Z,2.20
2023-07-18T20:15:38.768Z,2.60
2023-07-18T20:18:06.619Z,2.60
2023-07-18T20:20:34.437Z,2.50
2023-07-18T20:23:03.119Z,2.20
2023-07-18T20:25:31.995Z,2.40
2023-07-18T20:28:00.935Z,2.50
2023-07-18T20:30:28.635Z,2.60
2023-07-18T20:32:57.182Z,2.90
2023-07-18T20:35:25.956Z,2.30
2023-07-18T20:37:53.615Z,2.50
2023-07-18T20:40:21.801Z,2.30
2023-07-18T20:42:49.435Z,2.20
2023-07-18T20:45:17.071Z,2.50
2023-07-18T20:47:45.357Z,2.40
2023-07-18T20:50:17.138Z,2.10
2023-07-18T20:52:44.776Z,2.10
2023-07-18T20:55:12.493Z,2.10
2023-07-18T20:57:40.308Z,2.20
2023-07-18T21:00:09.206Z,2.10
2023-07-18T21:02:36.961Z,2.10
2023-07-18T21:05:05.037Z,2.30
2023-07-18T21:07:32.683Z,2.30
2023-07-18T21:10:00.364Z,1.80
2023-07-18T21:12:27.981Z,2.30
2023-07-18T21:14:55.598Z,1.60
2023-07-18T21:19:51.386Z,2.50
2023-07-18T21:22:19.058Z,2.30
2023-07-18T21:24:46.728Z,2.10
2023-07-18T21:27:14.321Z,2.10
2023-07-18T21:29:41.832Z,2.40
2023-07-18T21:32:09.619Z,2.20
2023-07-18T21:34:37.401Z,2.40
2023-07-18T21:37:05.410Z,2.30
2023-07-18T21:39:36.986Z,2.80
2023-07-18T21:42:04.782Z,2.60
2023-07-18T21:46:59.832Z,1.90
2023-07-18T21:49:27.605Z,2.40
2023-07-18T21:51:55.483Z,2.70
2023-07-18T21:54:23.167Z,2.60
2023-07-18T21:56:50.954Z,2.70
2023-07-18T21:59:18.552Z,2.90
2023-07-18T22:01:46.806Z,2.80
2023-07-18T22:04:14.592Z,2.50
2023-07-18T22:06:42.256Z,2.60
2023-07-18T22:09:11.972Z,2.70
2023-07-18T22:11:39.568Z,2.80
2023-07-18T22:14:07.220Z,2.90
2023-07-18T22:16:34.849Z,2.60
2023-07-18T22:19:02.476Z,2.60
2023-07-18T22:21:30.001Z,2.50
2023-07-18T22:23:57.578Z,2.40
2023-07-18T22:26:25.389Z,2.40
2023-07-18T22:28:53.092Z,2.90
2023-07-18T22:31:21.019Z,2.60
2023-07-18T22:33:48.849Z,2.50
2023-07-18T22:36:16.456Z,2.60
2023-07-18T22:38:44.220Z,2.60
2023-07-18T22:43:39.313Z,3.00
2023-07-18T22:46:06.967Z,2.90
2023-07-18T22:48:34.901Z,2.50
2023-07-18T22:51:03.233Z,2.60
2023-07-18T22:53:30.791Z,2.30
2023-07-18T22:55:58.426Z,2.40
2023-07-18T22:58:25.984Z,2.50
2023-07-18T23:00:54.145Z,2.20
2023-07-18T23:03:21.882Z,2.30
2023-07-18T23:05:49.548Z,2.80
2023-07-18T23:08:17.308Z,2.40
2023-07-18T23:10:44.899Z,2.50
2023-07-18T23:13:13.334Z,2.10
2023-07-18T23:15:42.822Z,2.30
2023-07-18T23:18:10.325Z,2.50
2023-07-18T23:20:38.115Z,2.50
2023-07-18T23:23:06.641Z,2.50
2023-07-18T23:25:34.310Z,2.50
2023-07-18T23:28:01.959Z,2.30
2023-07-18T23:30:29.807Z,2.20
2023-07-18T23:32:57.893Z,3.30
2023-07-18T23:37:57.106Z,2.30
2023-07-18T23:40:24.786Z,2.20
2023-07-18T23:42:52.698Z,2.40
2023-07-18T23:47:48.010Z,2.80
2023-07-18T23:50:15.888Z,2.40
2023-07-18T23:55:10.982Z,2.50
2023-07-18T23:57:38.629Z,2.30
